»·PEaware :: UAL1010 KPDX-KDEN

UAL1010 :: KPDX-KDEN

FLIGHT INFORMATION

Flight Status: Arrived
Operator:
United Airlines
More flights by this operator :: More flights under this callsign
Pilot: Colin A. (19898)
Aircraft: MCDONNELL-DOUGLAS MD-82
(MD82)
More flights by this aircraft type
Origin: KPDX Portland Intl
United States
Destination: KDEN Denver Intl
United States
More flights between these airports :: More routes between these airports
Route: +WHAMY4 IMB J15 BOI J163 OCS GWEDO + KAILE2 +
File this flight plan on PilotEdge
Remarks: PBN / A1B2 DOF / 180912 REG / N882SB EET / KZLC0030 KZDV0131 OPR / UAL PER / C RMK / TCAS SIMBRIEF
Altitude:
(Current/Filed)
33,000ft
Speed:
(Current/Filed)
445kts
Departed: 12-Sep-18 10:16 AM
Arrived: 12-Sep-18 12:19 PM
Distance/Time
Traveled:
859nm/2:03
Distance/Time
To Go:
Arrived

Flight Plot

Page will automatically refresh every two minutes.

Flight plan parsing failed; only flown route is shown


Map Options




Map Legend


Flown Route
Filed Route
Departure Airport
Arrival Airport
Navaid (VOR, NDB)
Fix

Horizontal Profiles

Position Reports

Time Latitude Longitude Heading Altitude Ground
Speed
12-Sep-18 09:55 45.590389 -122.591639 210 39ft 0kts
12-Sep-18 09:56 45.590389 -122.591639 210 39ft 0kts
12-Sep-18 09:57 45.590389 -122.591639 210 39ft 0kts
12-Sep-18 09:58 45.590389 -122.591639 210 39ft 0kts
12-Sep-18 09:59 45.590389 -122.591639 210 39ft 0kts
12-Sep-18 10:00 45.590389 -122.591639 210 39ft 0kts
12-Sep-18 10:01 45.590389 -122.591639 210 39ft 0kts
12-Sep-18 10:02 45.590389 -122.591639 210 39ft 0kts
12-Sep-18 10:03 45.590389 -122.591639 210 39ft 0kts
12-Sep-18 10:04 45.590389 -122.591639 210 39ft 0kts
12-Sep-18 10:05 45.590389 -122.591639 210 39ft 0kts
12-Sep-18 10:06 45.590389 -122.591639 210 39ft 0kts
12-Sep-18 10:07 45.590389 -122.591639 210 39ft 0kts
12-Sep-18 10:08 45.590389 -122.591639 210 39ft 0kts
12-Sep-18 10:09 45.590908 -122.591399 172 39ft 2kts
12-Sep-18 10:10 45.591193 -122.591705 120 39ft 0kts
12-Sep-18 10:11 45.591193 -122.591704 120 39ft 0kts
12-Sep-18 10:12 45.591192 -122.591703 120 39ft 0kts
12-Sep-18 10:13 45.591180 -122.591674 120 39ft 0kts
12-Sep-18 10:14 45.589675 -122.585102 119 39ft 34kts
12-Sep-18 10:15 45.585337 -122.574196 118 39ft 29kts
12-Sep-18 10:16 45.583659 -122.569109 33 39ft 0kts
12-Sep-18 10:17 45.583662 -122.569106 33 39ft 0kts
12-Sep-18 10:18 45.593125 -122.591387 297 99ft 176kts
12-Sep-18 10:19 45.616299 -122.666338 290 2747ft 224kts
12-Sep-18 10:20 45.648965 -122.749675 299 4887ft 258kts
12-Sep-18 10:21 45.656928 -122.849319 260 7640ft 267kts
12-Sep-18 10:22 45.621576 -122.937998 196 10238ft 281kts
12-Sep-18 10:23 45.545903 -122.905402 138 12826ft 302kts
12-Sep-18 10:24 45.510548 -122.794872 110 15452ft 317kts
12-Sep-18 10:25 45.474990 -122.677325 116 18043ft 330kts
12-Sep-18 10:26 45.436716 -122.555280 115 20325ft 347kts
12-Sep-18 10:27 45.396269 -122.426161 116 22337ft 366kts
12-Sep-18 10:28 45.353260 -122.290205 117 23866ft 393kts
12-Sep-18 10:29 45.306365 -122.142254 116 24884ft 423kts
12-Sep-18 10:30 45.258443 -121.990273 116 26168ft 424kts
12-Sep-18 10:31 45.217018 -121.832080 112 27670ft 429kts
12-Sep-18 10:32 45.176258 -121.673017 114 29168ft 428kts
12-Sep-18 10:33 45.135482 -121.514993 114 30451ft 429kts
12-Sep-18 10:34 45.094363 -121.355134 114 31452ft 434kts
12-Sep-18 10:35 45.051939 -121.194756 114 32451ft 435kts
12-Sep-18 10:36 45.009501 -121.033677 115 33028ft 445kts
12-Sep-18 10:37 44.965221 -120.865527 115 33027ft 465kts
12-Sep-18 10:38 44.918774 -120.691862 115 33028ft 476kts
12-Sep-18 10:39 44.879768 -120.547882 114 33028ft 473kts
12-Sep-18 10:40 44.825302 -120.345751 115 33028ft 474kts
12-Sep-18 10:41 44.785667 -120.200918 116 33028ft 474kts
12-Sep-18 10:42 44.730493 -120.000570 116 33028ft 474kts
12-Sep-18 10:43 44.682166 -119.826238 116 33029ft 475kts
12-Sep-18 10:44 44.641889 -119.681854 117 33030ft 475kts
12-Sep-18 10:45 44.590591 -119.511380 118 33031ft 475kts
12-Sep-18 10:46 44.540474 -119.339528 117 33033ft 476kts
12-Sep-18 10:47 44.490231 -119.167825 118 33034ft 476kts
12-Sep-18 10:48 44.430880 -118.968584 118 33036ft 477kts
12-Sep-18 10:49 44.388446 -118.826131 118 33027ft 476kts
12-Sep-18 10:50 44.337032 -118.654920 118 33025ft 478kts
12-Sep-18 10:51 44.285236 -118.483301 119 33023ft 479kts
12-Sep-18 10:52 44.233006 -118.312769 120 33022ft 480kts
12-Sep-18 10:53 44.180559 -118.141639 120 33020ft 481kts
12-Sep-18 10:54 44.128032 -117.970755 120 33017ft 481kts
12-Sep-18 10:55 44.074489 -117.799282 120 33012ft 481kts
12-Sep-18 10:56 44.021326 -117.629307 120 33004ft 480kts
12-Sep-18 10:57 43.967660 -117.458851 121 32997ft 483kts
12-Sep-18 10:58 43.913382 -117.288722 122 32996ft 483kts
12-Sep-18 10:59 43.859148 -117.118098 122 32995ft 483kts
12-Sep-18 11:00 43.804497 -116.947810 123 32993ft 484kts
12-Sep-18 11:01 43.749221 -116.778336 123 32989ft 484kts
12-Sep-18 11:02 43.694110 -116.609028 123 32987ft 483kts
12-Sep-18 11:03 43.636708 -116.440918 127 32993ft 483kts
12-Sep-18 11:04 43.580496 -116.272259 122 32980ft 489kts
12-Sep-18 11:05 43.536959 -116.092874 113 32976ft 499kts
12-Sep-18 11:06 43.504500 -115.905918 112 32974ft 501kts
12-Sep-18 11:07 43.471582 -115.719886 113 32972ft 500kts
12-Sep-18 11:08 43.438277 -115.533228 113 32971ft 502kts
12-Sep-18 11:09 43.404013 -115.346893 113 32973ft 503kts
12-Sep-18 11:10 43.369641 -115.159690 114 32976ft 504kts
12-Sep-18 11:11 43.335466 -114.972796 114 32977ft 504kts
12-Sep-18 11:12 43.300215 -114.786652 114 32984ft 505kts
12-Sep-18 11:13 43.264908 -114.600111 114 32985ft 505kts
12-Sep-18 11:14 43.229771 -114.413399 115 32985ft 505kts
12-Sep-18 11:15 43.193534 -114.227383 114 32982ft 505kts
12-Sep-18 11:16 43.157417 -114.041809 115 32980ft 505kts
12-Sep-18 11:17 43.121480 -113.857978 115 32978ft 504kts
12-Sep-18 11:18 43.084251 -113.671553 115 32977ft 503kts
12-Sep-18 11:19 43.047261 -113.487047 115 32973ft 504kts
12-Sep-18 11:20 43.009999 -113.301696 115 32974ft 503kts
12-Sep-18 11:21 42.972287 -113.117573 115 32978ft 503kts
12-Sep-18 11:22 42.934360 -112.933558 115 32982ft 504kts
12-Sep-18 11:23 42.893852 -112.751257 116 32984ft 502kts
12-Sep-18 11:24 42.850299 -112.571559 124 32986ft 490kts
12-Sep-18 11:25 42.793059 -112.412708 124 32985ft 491kts
12-Sep-18 11:26 42.737743 -112.241916 123 32983ft 491kts
12-Sep-18 11:27 42.685784 -112.086763 123 32980ft 491kts
12-Sep-18 11:28 42.629188 -111.918337 123 32982ft 489kts
12-Sep-18 11:29 42.572176 -111.750458 123 32993ft 490kts
12-Sep-18 11:30 42.515249 -111.582818 123 32997ft 490kts
12-Sep-18 11:31 42.457854 -111.415094 123 33001ft 489kts
12-Sep-18 11:32 42.400596 -111.248155 123 33005ft 489kts
12-Sep-18 11:33 42.343100 -111.081875 123 33010ft 489kts
12-Sep-18 11:34 42.284980 -110.915992 123 33027ft 487kts
12-Sep-18 11:35 42.227022 -110.750437 123 33040ft 486kts
12-Sep-18 11:36 42.169599 -110.587341 122 33044ft 486kts
12-Sep-18 11:37 42.111033 -110.422770 122 33049ft 486kts
12-Sep-18 11:38 42.052202 -110.259067 122 33045ft 485kts
12-Sep-18 11:39 41.993681 -110.095506 122 33043ft 485kts
12-Sep-18 11:40 41.934678 -109.932406 122 33042ft 485kts
12-Sep-18 11:41 41.875429 -109.769023 122 33033ft 486kts
12-Sep-18 11:42 41.816050 -109.606544 123 33022ft 486kts
12-Sep-18 11:43 41.755992 -109.444325 123 33018ft 486kts
12-Sep-18 11:44 41.696115 -109.282549 123 33016ft 484kts
12-Sep-18 11:45 41.635954 -109.120975 123 33015ft 485kts
12-Sep-18 11:46 41.577279 -108.958476 119 33016ft 487kts
12-Sep-18 11:47 41.525862 -108.791148 117 33012ft 489kts
12-Sep-18 11:48 41.474836 -108.623391 118 33020ft 487kts
12-Sep-18 11:49 41.423665 -108.456005 118 33029ft 487kts
12-Sep-18 11:50 41.371752 -108.289540 118 33036ft 487kts
12-Sep-18 11:51 41.313759 -108.128319 130 33049ft 476kts
12-Sep-18 11:52 41.248584 -107.974211 121 33054ft 484kts
12-Sep-18 11:53 41.187972 -107.814699 124 33066ft 482kts
12-Sep-18 11:54 41.126026 -107.659269 124 33065ft 458kts
12-Sep-18 11:55 41.066080 -107.509094 124 33064ft 463kts
12-Sep-18 11:56 41.006020 -107.358723 124 33064ft 463kts
12-Sep-18 11:57 40.945793 -107.208046 124 33064ft 463kts
12-Sep-18 11:58 40.885345 -107.057481 124 33064ft 463kts
12-Sep-18 11:59 40.824404 -106.907417 124 33064ft 463kts
12-Sep-18 12:00 40.763436 -106.757486 124 33064ft 464kts
12-Sep-18 12:01 40.700130 -106.609502 124 33065ft 464kts
12-Sep-18 12:02 40.639841 -106.459215 124 33065ft 464kts
12-Sep-18 12:03 40.578406 -106.308838 123 32289ft 466kts
12-Sep-18 12:04 40.517006 -106.162480 124 29895ft 451kts
12-Sep-18 12:05 40.457791 -106.019419 117 27396ft 443kts
12-Sep-18 12:06 40.425193 -105.869900 104 25012ft 437kts
12-Sep-18 12:07 40.402548 -105.714825 103 22507ft 425kts
12-Sep-18 12:08 40.378961 -105.565533 104 20018ft 412kts
12-Sep-18 12:09 40.356068 -105.422663 103 18059ft 386kts
12-Sep-18 12:10 40.337932 -105.288792 102 17988ft 368kts
12-Sep-18 12:11 40.319869 -105.158643 102 17966ft 367kts
12-Sep-18 12:12 40.301635 -105.026256 102 17840ft 367kts
12-Sep-18 12:13 40.283773 -104.896539 102 16274ft 355kts
12-Sep-18 12:14 40.265587 -104.779683 107 13630ft 326kts
12-Sep-18 12:15 40.212896 -104.694535 156 10643ft 298kts
12-Sep-18 12:16 40.133768 -104.683615 180 9962ft 286kts
12-Sep-18 12:17 40.056246 -104.684791 180 8216ft 263kts
12-Sep-18 12:18 39.991749 -104.685577 182 7227ft 200kts
12-Sep-18 12:19 39.943734 -104.686288 182 6454ft 145kts
12-Sep-18 12:20 39.904694 -104.686729 182 5620ft 137kts
12-Sep-18 12:21 39.878589 -104.686841 167 5440ft 28kts
12-Sep-18 12:22 39.870460 -104.684981 179 5440ft 40kts
12-Sep-18 12:23 39.858716 -104.685118 175 5440ft 37kts
12-Sep-18 12:24 39.860352 -104.681763 32 5440ft 25kts
12-Sep-18 12:25 39.860268 -104.679258 125 5440ft 9kts
12-Sep-18 12:26 39.859441 -104.677902 179 5440ft 0kts
12-Sep-18 12:27 39.859497 -104.677903 179 5440ft 0kts
12-Sep-18 12:28 39.859497 -104.677903 179 5440ft 0kts
12-Sep-18 12:29 39.859497 -104.677903 179 5440ft 0kts
12-Sep-18 12:30 39.859497 -104.677903 179 5440ft 0kts
12-Sep-18 12:31 39.859497 -104.677903 179 5440ft 0kts
12-Sep-18 12:32 39.859497 -104.677903 179 5440ft 0kts

Navigation Log

Ident Type
Flight plan parsing failed, navigation log unavailable